Time;durP1;ratioP1;P1;durP2;ratioP2;P2;SDS_P1;SDS_P2;PMS_P1;PMS_P2;Temp;Humidity;BMP_temperature;BMP_pressure;BME280_temperature;BME280_humidity;BME280_pressure;Samples;Min_cycle;Max_cycle;Signal;HPM_P1;HPM_P2
2023/06/20 00:02:21;;;;;;;3.30;2.08;;;28.00;46.20;;;;;;5038382;28;20477;-68
2023/06/20 00:04:47;;;;;;;3.72;2.10;;;28.00;46.20;;;;;;5040174;28;20024;-68
2023/06/20 00:07:13;;;;;;;2.47;1.98;;;28.00;46.20;;;;;;5037682;28;20044;-68
2023/06/20 00:09:38;;;;;;;2.75;2.00;;;28.00;46.20;;;;;;5036251;28;20484;-68
2023/06/20 00:12:04;;;;;;;3.10;2.10;;;27.90;46.10;;;;;;5038214;28;20076;-68
2023/06/20 00:14:30;;;;;;;2.40;2.00;;;28.00;46.20;;;;;;5037887;28;20032;-68
2023/06/20 00:16:59;;;;;;;2.38;1.90;;;28.00;46.20;;;;;;5039481;28;20020;-68
2023/06/20 00:19:28;;;;;;;2.28;1.92;;;27.90;46.20;;;;;;5038477;28;20059;-68
2023/06/20 00:21:53;;;;;;;2.30;1.98;;;27.90;46.10;;;;;;5037109;28;20025;-67
2023/06/20 00:24:19;;;;;;;2.40;2.10;;;28.00;46.20;;;;;;5038000;28;20456;-68
2023/06/20 00:26:45;;;;;;;2.50;2.03;;;27.90;46.20;;;;;;5040236;28;20049;-67
2023/06/20 00:29:10;;;;;;;2.22;1.90;;;27.90;46.10;;;;;;5038476;28;20033;-68
2023/06/20 00:31:37;;;;;;;2.45;1.98;;;27.90;46.10;;;;;;5039512;28;20026;-67
2023/06/20 00:34:02;;;;;;;2.30;2.00;;;27.90;46.10;;;;;;5039277;28;20064;-67
2023/06/20 00:36:28;;;;;;;2.55;1.92;;;27.90;46.60;;;;;;5037731;28;20056;-68
2023/06/20 00:38:54;;;;;;;2.50;2.10;;;27.90;46.20;;;;;;5036159;28;20017;-67
2023/06/20 00:41:23;;;;;;;3.55;2.13;;;27.90;46.10;;;;;;5040662;28;20218;-67
2023/06/20 00:43:50;;;;;;;2.42;1.88;;;27.90;46.10;;;;;;5037192;28;20022;-67
2023/06/20 00:46:17;;;;;;;2.33;1.92;;;27.90;46.10;;;;;;5038329;28;20037;-66
2023/06/20 00:48:43;;;;;;;2.38;1.95;;;27.90;46.20;;;;;;5037646;28;20056;-68
2023/06/20 00:51:10;;;;;;;2.50;1.98;;;27.80;46.00;;;;;;5037434;28;20196;-67
2023/06/20 00:53:36;;;;;;;2.40;2.10;;;27.90;46.10;;;;;;5034816;28;20030;-67
2023/06/20 00:56:03;;;;;;;2.55;2.17;;;27.90;46.10;;;;;;5038081;28;20025;-67
2023/06/20 00:58:28;;;;;;;2.30;1.77;;;27.80;46.10;;;;;;5037284;28;20122;-67
2023/06/20 01:00:54;;;;;;;2.30;1.90;;;27.80;46.10;;;;;;5036882;28;20418;-67
2023/06/20 01:03:20;;;;;;;2.30;2.10;;;27.80;46.10;;;;;;5038987;28;20461;-68
2023/06/20 01:06:21;;;;;;;2.60;1.90;;;27.80;46.10;;;;;;5037896;28;20025;-67
2023/06/20 01:09:13;;;;;;;2.28;1.88;;;27.80;46.10;;;;;;5037265;28;20047;-67
2023/06/20 01:11:47;;;;;;;2.50;2.00;;;27.80;46.10;;;;;;5034953;28;20033;-67
2023/06/20 01:14:25;;;;;;;2.58;1.90;;;27.80;46.10;;;;;;5038018;28;20099;-67
2023/06/20 01:17:05;;;;;;;2.40;1.90;;;27.80;46.10;;;;;;5038397;28;20018;-67
2023/06/20 01:20:12;;;;;;;2.35;1.83;;;27.80;46.10;;;;;;5037561;28;20056;-66
2023/06/20 01:22:44;;;;;;;2.40;1.90;;;27.80;46.10;;;;;;5036646;28;20434;-67
2023/06/20 01:25:31;;;;;;;2.50;2.10;;;27.80;46.10;;;;;;5035652;28;20039;-67
2023/06/20 01:28:07;;;;;;;2.20;1.73;;;27.80;46.10;;;;;;5038304;28;20025;-68
2023/06/20 01:30:46;;;;;;;2.05;1.80;;;27.80;46.10;;;;;;5037939;28;20133;-67
2023/06/20 01:33:15;;;;;;;2.47;1.80;;;27.80;46.10;;;;;;5035246;28;20034;-67
2023/06/20 01:35:42;;;;;;;;;;;27.80;46.10;;;;;;5038245;28;20481;-68
2023/06/20 01:38:10;;;;;;;2.30;1.90;;;27.80;46.10;;;;;;5037763;28;20384;-68
2023/06/20 01:40:37;;;;;;;2.10;1.80;;;27.70;46.00;;;;;;5037909;28;20090;-68
2023/06/20 01:43:05;;;;;;;2.50;2.00;;;27.70;46.00;;;;;;5052717;28;20144;-67
2023/06/20 01:45:35;;;;;;;2.10;1.75;;;27.80;46.10;;;;;;5038967;28;20544;-67
2023/06/20 01:48:03;;;;;;;2.50;2.00;;;27.70;46.00;;;;;;5039038;28;20386;-67
2023/06/20 01:50:30;;;;;;;2.60;2.20;;;27.70;46.00;;;;;;5039212;28;20060;-67
2023/06/20 01:52:57;;;;;;;2.35;1.90;;;27.70;46.10;;;;;;5037295;28;20043;-67
2023/06/20 01:55:24;;;;;;;2.60;1.90;;;27.70;46.10;;;;;;5040937;28;20470;-67
2023/06/20 01:57:54;;;;;;;2.30;1.90;;;27.70;46.10;;;;;;5043723;28;20484;-67
2023/06/20 02:00:21;;;;;;;2.30;2.10;;;27.70;46.10;;;;;;5057412;28;20536;-68
2023/06/20 02:02:48;;;;;;;2.53;1.90;;;27.70;46.00;;;;;;5043460;28;20064;-67
2023/06/20 02:05:15;;;;;;;2.03;1.77;;;27.70;46.00;;;;;;5037329;28;20029;-67
2023/06/20 02:07:42;;;;;;;2.15;1.73;;;27.70;46.10;;;;;;5039823;28;20108;-67
2023/06/20 02:10:10;;;;;;;2.35;1.88;;;27.70;46.10;;;;;;5039585;28;20036;-68
2023/06/20 02:12:37;;;;;;;2.22;1.95;;;27.70;46.10;;;;;;5041111;28;20094;-68
2023/06/20 02:15:04;;;;;;;2.22;1.90;;;27.60;46.00;;;;;;5042859;28;20147;-68
2023/06/20 02:17:31;;;;;;;2.40;2.10;;;27.70;46.10;;;;;;5048232;28;20081;-68
2023/06/20 02:19:57;;;;;;;2.70;1.95;;;27.60;46.00;;;;;;5039282;28;20059;-67
2023/06/20 02:22:25;;;;;;;2.30;1.90;;;27.60;46.00;;;;;;5043065;28;20065;-67
2023/06/20 02:24:52;;;;;;;2.08;1.80;;;27.60;46.00;;;;;;5042200;28;20504;-67
2023/06/20 02:27:20;;;;;;;2.45;1.83;;;27.60;46.00;;;;;;5042119;28;20030;-68
2023/06/20 02:29:50;;;;;;;2.42;2.00;;;27.60;46.00;;;;;;5040121;28;20036;-67
2023/06/20 02:32:19;;;;;;;2.42;1.95;;;27.60;46.00;;;;;;5039705;28;20037;-67
2023/06/20 02:34:48;;;;;;;2.60;2.10;;;27.60;46.50;;;;;;5039876;28;20021;-68
2023/06/20 02:37:14;;;;;;;2.40;1.98;;;27.60;46.00;;;;;;5040342;28;20252;-68
2023/06/20 02:39:40;;;;;;;2.13;1.75;;;27.60;46.00;;;;;;5040407;28;20111;-67
2023/06/20 02:42:06;;;;;;;2.42;1.90;;;27.60;46.00;;;;;;5039307;28;20465;-67
2023/06/20 02:44:31;;;;;;;2.17;1.90;;;27.60;46.00;;;;;;5040179;28;20036;-67
2023/06/20 02:47:11;;;;;;;2.20;1.80;;;27.60;46.00;;;;;;5039542;28;20496;-67
2023/06/20 02:49:45;;;;;;;2.25;1.77;;;27.60;46.00;;;;;;5039528;28;20029;-67
2023/06/20 02:52:31;;;;;;;2.40;1.95;;;27.60;46.00;;;;;;5042194;28;20103;-67
2023/06/20 02:55:09;;;;;;;2.30;1.80;;;27.60;46.00;;;;;;5040906;28;20021;-68
2023/06/20 02:57:39;;;;;;;2.28;1.80;;;27.60;46.00;;;;;;5041760;28;20029;-67
2023/06/20 03:00:09;;;;;;;2.40;1.90;;;27.60;46.00;;;;;;5040936;28;20013;-68
2023/06/20 03:02:42;;;;;;;2.70;2.10;;;27.60;46.00;;;;;;5042292;28;20052;-67
2023/06/20 03:05:11;;;;;;;2.20;1.80;;;27.50;45.90;;;;;;5040792;28;20039;-67
2023/06/20 03:07:39;;;;;;;2.13;1.80;;;27.50;45.90;;;;;;5041190;28;20021;-67
2023/06/20 03:10:06;;;;;;;2.10;1.83;;;27.50;45.90;;;;;;5038677;28;20021;-67
2023/06/20 03:12:32;;;;;;;2.20;1.80;;;27.50;45.90;;;;;;5040072;28;20025;-68
2023/06/20 03:14:58;;;;;;;2.53;1.92;;;27.50;45.90;;;;;;5041682;28;20072;-68
2023/06/20 03:17:23;;;;;;;1.90;1.60;;;27.50;45.90;;;;;;5040483;28;20037;-67
2023/06/20 03:19:49;;;;;;;2.20;1.80;;;27.50;45.90;;;;;;5041484;28;20017;-67
2023/06/20 03:22:15;;;;;;;2.47;2.00;;;27.50;46.00;;;;;;5039825;28;20517;-68
2023/06/20 03:24:40;;;;;;;1.70;1.60;;;27.50;45.90;;;;;;5040177;28;20025;-67
2023/06/20 03:27:06;;;;;;;2.45;1.88;;;27.50;46.00;;;;;;5039568;28;20353;-67
2023/06/20 03:29:32;;;;;;;1.92;1.60;;;27.50;45.90;;;;;;5041815;28;20021;-68
2023/06/20 03:31:58;;;;;;;2.20;1.90;;;27.50;45.90;;;;;;5038914;28;20541;-67
2023/06/20 03:34:24;;;;;;;2.25;1.70;;;27.50;45.90;;;;;;5037080;28;20120;-67
2023/06/20 03:36:49;;;;;;;1.98;1.70;;;27.40;45.90;;;;;;5046961;28;20389;-67
2023/06/20 03:39:15;;;;;;;2.17;1.70;;;27.50;45.90;;;;;;5038926;28;20038;-68
2023/06/20 03:41:40;;;;;;;2.35;1.80;;;27.40;45.90;;;;;;5037619;28;20021;-68
2023/06/20 03:44:06;;;;;;;2.35;2.00;;;27.50;46.00;;;;;;5039447;28;20044;-67
2023/06/20 03:46:32;;;;;;;2.10;1.70;;;27.50;45.90;;;;;;5039304;28;20099;-67
2023/06/20 03:48:57;;;;;;;2.20;1.73;;;27.50;46.00;;;;;;5041904;28;20358;-68
2023/06/20 03:51:23;;;;;;;2.40;1.90;;;27.50;46.00;;;;;;5039299;28;20036;-67
2023/06/20 03:53:48;;;;;;;2.00;1.70;;;27.50;45.90;;;;;;5040684;28;20029;-67
2023/06/20 03:56:14;;;;;;;1.88;1.63;;;27.50;46.00;;;;;;5041156;28;20021;-68
2023/06/20 03:58:40;;;;;;;2.30;1.98;;;27.40;45.90;;;;;;5039554;28;20080;-68
2023/06/20 04:01:06;;;;;;;2.20;1.75;;;27.50;46.00;;;;;;5039542;28;20504;-67
2023/06/20 04:03:32;;;;;;;2.10;1.80;;;27.40;45.90;;;;;;5037474;28;20017;-67
2023/06/20 04:06:01;;;;;;;1.92;1.70;;;27.40;45.90;;;;;;5039167;28;20029;-67
2023/06/20 04:08:29;;;;;;;2.30;1.80;;;27.40;45.90;;;;;;5039391;28;20065;-67
2023/06/20 04:10:56;;;;;;;2.25;1.90;;;27.40;45.90;;;;;;5037367;28;20592;-67
2023/06/20 04:13:22;;;;;;;2.17;1.70;;;27.40;45.90;;;;;;5039818;28;20024;-68
2023/06/20 04:15:47;;;;;;;2.30;1.80;;;27.40;46.00;;;;;;5037423;28;20442;-67
2023/06/20 04:18:13;;;;;;;2.15;1.83;;;27.40;45.90;;;;;;5041888;28;20025;-67
2023/06/20 04:20:39;;;;;;;2.10;1.73;;;27.40;46.00;;;;;;5039797;28;20037;-67
2023/06/20 04:23:04;;;;;;;2.05;1.77;;;27.40;46.00;;;;;;5039844;28;20049;-66
2023/06/20 04:25:30;;;;;;;2.35;2.08;;;27.40;46.10;;;;;;5036836;28;20021;-68
2023/06/20 04:27:56;;;;;;;2.10;1.60;;;27.40;46.10;;;;;;5037620;28;20037;-67
2023/06/20 04:30:22;;;;;;;2.35;1.88;;;27.40;46.20;;;;;;5036836;28;20104;-67
2023/06/20 04:32:48;;;;;;;2.30;1.85;;;27.40;46.10;;;;;;5039755;28;20043;-67
2023/06/20 04:35:14;;;;;;;2.33;1.90;;;27.40;46.20;;;;;;5038636;28;20598;-66
2023/06/20 04:37:41;;;;;;;2.50;2.00;;;27.40;46.20;;;;;;5040032;28;20053;-67
2023/06/20 04:40:08;;;;;;;2.30;1.80;;;27.40;46.10;;;;;;5038868;28;20033;-67
2023/06/20 04:42:34;;;;;;;2.45;1.90;;;27.40;46.10;;;;;;5036780;28;20025;-67
2023/06/20 04:44:59;;;;;;;2.42;1.90;;;27.40;46.10;;;;;;5042075;28;20029;-67
2023/06/20 04:47:25;;;;;;;2.50;1.90;;;27.40;46.10;;;;;;5036148;28;20029;-67
2023/06/20 04:49:51;;;;;;;2.08;1.73;;;27.40;46.10;;;;;;5038042;28;20057;-66
2023/06/20 04:52:16;;;;;;;2.30;1.85;;;27.40;46.10;;;;;;5038498;28;20449;-66
2023/06/20 04:54:42;;;;;;;2.88;2.20;;;27.40;46.20;;;;;;5039269;28;20060;-67
2023/06/20 04:57:08;;;;;;;2.38;1.98;;;27.40;46.20;;;;;;5038675;28;20588;-67
2023/06/20 04:59:35;;;;;;;2.33;1.85;;;27.40;46.20;;;;;;5039758;28;20036;-67
2023/06/20 05:02:05;;;;;;;2.20;1.90;;;27.40;46.20;;;;;;5041356;28;20053;-67
2023/06/20 05:04:31;;;;;;;2.15;1.90;;;27.30;46.10;;;;;;5039492;28;20527;-67
2023/06/20 05:06:57;;;;;;;2.33;2.00;;;27.40;46.20;;;;;;5036623;28;20140;-67
2023/06/20 05:09:23;;;;;;;2.25;1.90;;;27.30;46.10;;;;;;5037305;28;20429;-67
2023/06/20 05:11:48;;;;;;;2.63;1.90;;;27.30;46.20;;;;;;5037206;28;20025;-67
2023/06/20 05:14:14;;;;;;;2.30;1.77;;;27.30;46.10;;;;;;5038663;28;20029;-67
2023/06/20 05:16:40;;;;;;;2.20;1.80;;;27.30;46.20;;;;;;5038060;28;20057;-67
2023/06/20 05:19:05;;;;;;;2.60;1.83;;;27.30;46.10;;;;;;5038146;28;20049;-67
2023/06/20 05:21:31;;;;;;;2.20;1.90;;;27.30;46.20;;;;;;5038579;28;20511;-67
2023/06/20 05:23:56;;;;;;;2.20;1.90;;;27.30;46.20;;;;;;5038269;28;20083;-67
2023/06/20 05:26:22;;;;;;;1.90;1.60;;;27.30;46.20;;;;;;5038416;28;20021;-67
2023/06/20 05:28:47;;;;;;;2.28;1.80;;;27.30;46.20;;;;;;5038227;28;20520;-67
2023/06/20 05:31:13;;;;;;;2.20;1.83;;;27.30;46.20;;;;;;5043823;28;20017;-67
2023/06/20 05:33:39;;;;;;;2.35;2.00;;;27.30;46.20;;;;;;5045142;28;20037;-67
2023/06/20 05:36:04;;;;;;;2.15;1.73;;;27.30;46.20;;;;;;5042342;28;20469;-67
2023/06/20 05:38:32;;;;;;;2.10;1.67;;;27.30;46.20;;;;;;5043945;28;20437;-67
2023/06/20 05:40:59;;;;;;;2.50;1.80;;;27.30;46.20;;;;;;5041163;28;20431;-67
2023/06/20 05:43:25;;;;;;;2.08;1.73;;;27.30;46.20;;;;;;5043601;28;20369;-68
2023/06/20 05:45:50;;;;;;;2.20;1.80;;;27.20;46.10;;;;;;5041560;28;20059;-68
2023/06/20 05:48:16;;;;;;;2.17;1.90;;;27.30;46.20;;;;;;5043142;28;20033;-67
2023/06/20 05:50:41;;;;;;;1.92;1.70;;;27.30;46.20;;;;;;5043302;28;20030;-68
2023/06/20 05:53:07;;;;;;;2.22;1.70;;;27.30;46.20;;;;;;5042676;28;20063;-68
2023/06/20 05:55:33;;;;;;;2.30;1.77;;;27.30;46.20;;;;;;5040954;28;20033;-68
2023/06/20 05:57:59;;;;;;;2.33;1.83;;;27.30;46.20;;;;;;5039560;28;20485;-68
2023/06/20 06:00:24;;;;;;;2.38;1.70;;;27.30;46.20;;;;;;5043131;28;20499;-68
2023/06/20 06:02:50;;;;;;;2.13;1.83;;;27.20;46.20;;;;;;5042392;28;20468;-67
2023/06/20 06:05:16;;;;;;;2.47;1.98;;;27.20;46.20;;;;;;5041889;28;20021;-67
2023/06/20 06:07:42;;;;;;;3.65;2.05;;;27.20;46.20;;;;;;5041053;28;20029;-67
2023/06/20 06:10:08;;;;;;;2.30;1.80;;;27.20;46.30;;;;;;5042334;28;20056;-67
2023/06/20 06:12:37;;;;;;;2.22;1.80;;;27.20;46.40;;;;;;5040555;28;20025;-67
2023/06/20 06:15:04;;;;;;;2.25;1.80;;;27.20;46.40;;;;;;5037929;28;20029;-67
2023/06/20 06:17:30;;;;;;;2.20;1.70;;;27.20;46.30;;;;;;5041266;28;20470;-67
2023/06/20 06:19:57;;;;;;;2.00;1.77;;;27.20;46.30;;;;;;5047384;28;20140;-67
2023/06/20 06:22:23;;;;;;;1.80;1.55;;;27.20;46.30;;;;;;5041004;28;20047;-67
2023/06/20 06:24:49;;;;;;;2.33;1.90;;;27.20;46.30;;;;;;5042219;28;20485;-67
2023/06/20 06:27:14;;;;;;;2.03;1.70;;;27.20;46.30;;;;;;5040942;28;20139;-67
2023/06/20 06:29:40;;;;;;;2.22;1.77;;;27.20;46.40;;;;;;5040935;28;20108;-67
2023/06/20 06:32:07;;;;;;;2.40;1.80;;;27.20;46.30;;;;;;5039949;28;20138;-67
2023/06/20 06:34:33;;;;;;;2.20;1.80;;;27.20;46.30;;;;;;5040008;28;20037;-67
2023/06/20 06:37:00;;;;;;;2.38;1.70;;;27.20;46.30;;;;;;5041106;28;20026;-67
2023/06/20 06:39:26;;;;;;;2.10;1.70;;;27.20;46.30;;;;;;5038758;28;20040;-67
2023/06/20 06:41:51;;;;;;;2.30;1.80;;;27.20;46.40;;;;;;5039684;28;20018;-67
2023/06/20 06:44:18;;;;;;;2.03;1.70;;;27.20;46.30;;;;;;5037692;28;20090;-67
2023/06/20 06:46:44;;;;;;;2.13;1.80;;;27.20;46.30;;;;;;5041686;28;20026;-67
2023/06/20 06:49:09;;;;;;;2.47;1.88;;;27.20;46.30;;;;;;5040344;28;20033;-67
2023/06/20 06:51:39;;;;;;;2.10;1.70;;;27.20;46.30;;;;;;5038106;28;20550;-67
2023/06/20 06:54:05;;;;;;;2.08;1.73;;;27.20;46.30;;;;;;5037824;28;20461;-67
2023/06/20 06:56:30;;;;;;;1.90;1.63;;;27.20;46.30;;;;;;5038572;28;20029;-67
2023/06/20 06:59:00;;;;;;;2.33;1.70;;;27.10;46.30;;;;;;5040443;28;20030;-67
2023/06/20 07:01:26;;;;;;;2.35;1.60;;;27.10;46.20;;;;;;5039857;28;20752;-67
2023/06/20 07:03:52;;;;;;;1.88;1.50;;;27.10;46.30;;;;;;5042215;28;20076;-67
2023/06/20 07:06:19;;;;;;;1.85;1.55;;;27.10;46.30;;;;;;5039298;28;20037;-67
2023/06/20 07:08:45;;;;;;;1.80;1.50;;;27.10;46.20;;;;;;5037284;28;20026;-67
2023/06/20 07:11:11;;;;;;;2.08;1.70;;;27.10;46.30;;;;;;5039836;28;20560;-67
2023/06/20 07:13:36;;;;;;;2.30;1.73;;;27.10;46.30;;;;;;5040377;28;20037;-67
2023/06/20 07:16:02;;;;;;;2.25;1.80;;;27.10;46.20;;;;;;5038130;28;20094;-67
2023/06/20 07:18:27;;;;;;;2.08;1.60;;;27.10;46.20;;;;;;5041583;28;20444;-67
2023/06/20 07:20:55;;;;;;;2.00;1.60;;;27.10;46.20;;;;;;5040184;28;20131;-67
2023/06/20 07:23:21;;;;;;;1.92;1.60;;;27.10;46.30;;;;;;5042693;28;20021;-67
2023/06/20 07:25:46;;;;;;;2.10;1.67;;;27.10;46.20;;;;;;5041410;28;20112;-67
2023/06/20 07:28:12;;;;;;;2.13;1.70;;;27.10;46.20;;;;;;5038778;28;20149;-67
2023/06/20 07:30:38;;;;;;;1.88;1.40;;;27.10;46.30;;;;;;5039441;28;20032;-67
2023/06/20 07:33:05;;;;;;;2.25;1.70;;;27.10;46.20;;;;;;5041252;28;20033;-67
2023/06/20 07:35:31;;;;;;;2.20;1.63;;;27.10;46.20;;;;;;5038785;28;20115;-67
2023/06/20 07:37:57;;;;;;;2.30;1.75;;;27.10;46.20;;;;;;5041741;28;20567;-67
2023/06/20 07:40:22;;;;;;;2.30;1.77;;;27.10;46.20;;;;;;5040042;28;20048;-67
2023/06/20 07:42:48;;;;;;;1.90;1.60;;;27.10;46.20;;;;;;5041232;28;20033;-67
2023/06/20 07:45:14;;;;;;;1.92;1.60;;;27.10;46.20;;;;;;5039421;28;20497;-67
2023/06/20 07:47:39;;;;;;;1.90;1.55;;;27.10;46.20;;;;;;5038580;28;20048;-67
2023/06/20 07:50:05;;;;;;;1.88;1.60;;;27.10;46.20;;;;;;5038661;28;20369;-67
2023/06/20 07:52:33;;;;;;;1.92;1.63;;;27.10;46.20;;;;;;5038190;28;20341;-67
2023/06/20 07:55:01;;;;;;;2.10;1.70;;;27.10;46.20;;;;;;5038152;28;20529;-67
2023/06/20 07:57:27;;;;;;;1.67;1.48;;;27.10;46.20;;;;;;5038169;28;20412;-67
2023/06/20 07:59:52;;;;;;;2.88;1.83;;;27.10;46.20;;;;;;5040129;28;20025;-67
2023/06/20 08:02:18;;;;;;;2.53;1.73;;;27.10;46.20;;;;;;5039473;28;20037;-67
2023/06/20 08:04:44;;;;;;;2.10;1.60;;;27.10;46.20;;;;;;5038869;28;20488;-67
2023/06/20 08:07:09;;;;;;;1.80;1.52;;;27.10;46.20;;;;;;5038525;28;20043;-67
2023/06/20 08:09:35;;;;;;;2.08;1.60;;;27.10;46.20;;;;;;5039103;28;20123;-67
2023/06/20 08:12:00;;;;;;;1.70;1.52;;;27.10;46.30;;;;;;5039070;28;20039;-67
2023/06/20 08:14:26;;;;;;;2.40;1.70;;;27.10;46.30;;;;;;5040063;28;20098;-67
2023/06/20 08:16:52;;;;;;;2.00;1.60;;;27.10;46.30;;;;;;5038075;28;20022;-67
2023/06/20 08:19:17;;;;;;;2.20;1.70;;;27.10;46.30;;;;;;5038984;28;20026;-67
2023/06/20 08:21:43;;;;;;;2.10;1.60;;;27.00;46.30;;;;;;5038264;28;20064;-67
2023/06/20 08:24:08;;;;;;;2.15;1.65;;;27.10;46.30;;;;;;5038067;28;20026;-67
2023/06/20 08:26:34;;;;;;;2.13;1.70;;;27.10;46.30;;;;;;5037182;28;20032;-67
2023/06/20 08:29:00;;;;;;;1.85;1.50;;;27.10;46.30;;;;;;5037238;28;20029;-67
2023/06/20 08:31:37;;;;;;;2.03;1.40;;;27.10;46.30;;;;;;5036938;28;20472;-67
2023/06/20 08:34:04;;;;;;;1.85;1.50;;;27.10;46.40;;;;;;5039135;28;20033;-64
2023/06/20 08:36:30;;;;;;;1.95;1.60;;;27.10;46.30;;;;;;5035729;28;20106;-65
2023/06/20 08:38:55;;;;;;;1.92;1.52;;;27.00;46.20;;;;;;5039820;28;20029;-64
2023/06/20 08:41:28;;;;;;;2.20;1.67;;;27.00;46.30;;;;;;5038111;28;20025;-64
2023/06/20 08:43:54;;;;;;;2.10;1.60;;;27.00;46.40;;;;;;5039600;28;20080;-65
2023/06/20 08:46:20;;;;;;;2.00;1.60;;;27.00;46.30;;;;;;5037549;28;20033;-64
2023/06/20 08:48:49;;;;;;;2.30;1.60;;;27.00;46.40;;;;;;5038298;28;20117;-65
2023/06/20 08:51:20;;;;;;;1.90;1.60;;;27.00;46.40;;;;;;5038445;28;20437;-64
2023/06/20 08:53:47;;;;;;;2.03;1.60;;;27.00;46.40;;;;;;5039075;28;20044;-64
2023/06/20 08:56:14;;;;;;;2.03;1.63;;;27.00;46.40;;;;;;5038185;28;20036;-65
2023/06/20 08:58:40;;;;;;;1.80;1.50;;;27.00;46.30;;;;;;5036653;28;20079;-64
2023/06/20 09:01:07;;;;;;;2.40;1.70;;;27.00;46.30;;;;;;5040718;28;20033;-64
2023/06/20 09:03:33;;;;;;;1.90;1.60;;;27.00;46.40;;;;;;5042370;28;20025;-64
2023/06/20 09:05:58;;;;;;;1.70;1.48;;;27.00;46.40;;;;;;5042444;28;20112;-64
2023/06/20 09:08:34;;;;;;;2.38;1.60;;;27.00;46.40;;;;;;5042177;28;20112;-64
2023/06/20 09:11:10;;;;;;;2.20;1.70;;;27.00;46.40;;;;;;5041830;28;20024;-64
2023/06/20 09:13:37;;;;;;;1.75;1.35;;;27.00;46.30;;;;;;5040272;28;20455;-64
2023/06/20 09:16:09;;;;;;;2.00;1.50;;;27.00;46.40;;;;;;5041365;28;20051;-65
2023/06/20 09:18:37;;;;;;;2.00;1.67;;;27.00;46.40;;;;;;5042349;28;20020;-64
2023/06/20 09:21:03;;;;;;;2.25;1.70;;;27.00;46.40;;;;;;5041531;28;20610;-64
2023/06/20 09:23:33;;;;;;;1.92;1.45;;;27.00;46.40;;;;;;5043871;28;20022;-64
2023/06/20 09:26:16;;;;;;;2.10;1.50;;;27.00;46.50;;;;;;5041499;28;20029;-65
2023/06/20 09:28:42;;;;;;;1.65;1.40;;;27.00;46.50;;;;;;5042884;28;20017;-64
2023/06/20 09:31:07;;;;;;;1.75;1.40;;;27.00;46.50;;;;;;5042471;28;20167;-64
2023/06/20 09:33:39;;;;;;;1.65;1.40;;;27.00;46.50;;;;;;5048783;28;20120;-64
2023/06/20 09:36:17;;;;;;;2.10;1.60;;;27.00;46.50;;;;;;5043770;28;20033;-64
2023/06/20 09:38:52;;;;;;;1.52;1.35;;;27.00;46.50;;;;;;5042029;28;20078;-64
2023/06/20 09:41:18;;;;;;;1.50;1.30;;;27.00;46.50;;;;;;5042181;28;20021;-64
2023/06/20 09:43:44;;;;;;;1.92;1.40;;;27.00;46.50;;;;;;5041568;28;20508;-65
2023/06/20 09:46:10;;;;;;;1.80;1.48;;;27.00;46.50;;;;;;5041884;28;20474;-65
2023/06/20 09:48:36;;;;;;;1.90;1.35;;;27.00;46.50;;;;;;5045575;28;20132;-65
2023/06/20 09:51:02;;;;;;;1.80;1.50;;;27.00;46.50;;;;;;5041900;28;20032;-65
2023/06/20 09:53:44;;;;;;;1.88;1.50;;;27.00;46.50;;;;;;5041424;28;20041;-64
2023/06/20 09:56:11;;;;;;;1.80;1.48;;;27.00;46.50;;;;;;5041935;28;20052;-65
2023/06/20 09:58:46;;;;;;;1.90;1.50;;;27.00;46.40;;;;;;5041928;28;20021;-65
2023/06/20 10:01:20;;;;;;;1.50;1.30;;;27.10;46.50;;;;;;5042648;28;20035;-64
2023/06/20 10:03:47;;;;;;;1.60;1.40;;;27.00;46.50;;;;;;5038839;28;20120;-64
2023/06/20 10:06:14;;;;;;;2.10;1.40;;;27.00;46.50;;;;;;5041459;28;20029;-65
2023/06/20 10:08:40;;;;;;;1.90;1.50;;;27.00;46.40;;;;;;5042522;28;20033;-64
2023/06/20 10:11:07;;;;;;;2.00;1.50;;;27.00;46.50;;;;;;5040804;28;20511;-64
2023/06/20 10:13:33;;;;;;;1.98;1.48;;;27.00;46.50;;;;;;5041868;28;20021;-65
2023/06/20 10:15:59;;;;;;;2.00;1.50;;;27.00;46.40;;;;;;5040537;28;20136;-64
2023/06/20 10:18:29;;;;;;;2.20;1.50;;;27.00;46.50;;;;;;5040832;28;20037;-65
2023/06/20 10:20:55;;;;;;;1.70;1.40;;;27.00;46.50;;;;;;5041287;28;20070;-64
2023/06/20 10:23:30;;;;;;;1.70;1.40;;;27.00;46.40;;;;;;5042630;28;20029;-64
2023/06/20 10:26:00;;;;;;;1.90;1.42;;;27.00;46.40;;;;;;5042970;28;20264;-64
2023/06/20 10:28:26;;;;;;;1.85;1.40;;;27.00;46.50;;;;;;5037444;28;20484;-64
2023/06/20 10:30:58;;;;;;;1.60;1.30;;;27.00;46.40;;;;;;5039474;28;20068;-65
2023/06/20 10:33:27;;;;;;;1.80;1.50;;;27.00;46.40;;;;;;5042532;28;20559;-64
2023/06/20 10:36:10;;;;;;;1.70;1.38;;;27.00;46.50;;;;;;5042006;28;20031;-64
2023/06/20 10:38:38;;;;;;;2.03;1.40;;;27.00;46.40;;;;;;5048234;28;20071;-65
2023/06/20 10:41:07;;;;;;;1.88;1.50;;;27.00;46.50;;;;;;5041525;28;20017;-64
2023/06/20 10:43:45;;;;;;;1.95;1.20;;;27.00;46.50;;;;;;5039942;28;20572;-65
2023/06/20 10:46:11;;;;;;;2.60;1.30;;;27.00;46.50;;;;;;5039772;28;20653;-65
2023/06/20 10:48:38;;;;;;;1.60;1.30;;;27.00;46.50;;;;;;5040839;28;20033;-65
2023/06/20 10:51:05;;;;;;;1.88;1.30;;;27.00;46.50;;;;;;5038904;28;20087;-65
2023/06/20 10:53:31;;;;;;;1.70;1.30;;;27.00;46.50;;;;;;5040158;28;20116;-64
2023/06/20 10:55:57;;;;;;;1.63;1.40;;;27.00;46.50;;;;;;5042621;28;20052;-65
2023/06/20 10:58:22;;;;;;;1.60;1.35;;;27.00;46.50;;;;;;5038497;28;20037;-65
2023/06/20 11:00:52;;;;;;;1.55;1.27;;;27.00;46.50;;;;;;5038184;28;20021;-65
2023/06/20 11:03:20;;;;;;;1.90;1.40;;;27.00;46.50;;;;;;5038630;28;20100;-65
2023/06/20 11:05:50;;;;;;;1.98;1.45;;;27.00;46.50;;;;;;5039222;28;20130;-64
2023/06/20 11:08:27;;;;;;;1.60;1.30;;;27.00;46.50;;;;;;5041569;28;20103;-65
2023/06/20 11:10:54;;;;;;;1.90;1.40;;;27.00;46.50;;;;;;5039124;28;20512;-64
2023/06/20 11:13:20;;;;;;;1.67;1.40;;;27.00;46.60;;;;;;5039218;28;20076;-64
2023/06/20 11:15:46;;;;;;;2.45;1.42;;;27.00;46.60;;;;;;5039041;28;20480;-64
2023/06/20 11:18:12;;;;;;;1.75;1.30;;;27.00;46.60;;;;;;5041782;28;20029;-64
2023/06/20 11:20:40;;;;;;;1.70;1.40;;;27.00;46.60;;;;;;5039711;28;20119;-64
2023/06/20 11:23:10;;;;;;;1.90;1.50;;;27.00;46.60;;;;;;5037563;28;20129;-64
2023/06/20 11:25:37;;;;;;;1.90;1.50;;;27.00;46.60;;;;;;5039488;28;20037;-64
2023/06/20 11:28:14;;;;;;;1.70;1.30;;;27.00;46.60;;;;;;5038004;28;20457;-65
2023/06/20 11:30:45;;;;;;;2.10;1.50;;;27.00;46.60;;;;;;5038621;28;20118;-64
2023/06/20 11:33:15;;;;;;;2.70;1.55;;;27.00;46.60;;;;;;5039217;28;20039;-64
2023/06/20 11:35:41;;;;;;;1.77;1.35;;;27.00;46.60;;;;;;5039111;28;20034;-64
2023/06/20 11:38:13;;;;;;;1.98;1.45;;;27.00;46.60;;;;;;5040634;28;20028;-64
2023/06/20 11:40:39;;;;;;;2.15;1.60;;;27.00;46.60;;;;;;5037789;28;20026;-64
2023/06/20 11:43:05;;;;;;;1.92;1.30;;;27.00;46.60;;;;;;5035304;28;20028;-64
2023/06/20 11:45:32;;;;;;;2.65;1.50;;;27.00;46.60;;;;;;5038600;28;20559;-64
2023/06/20 11:48:12;;;;;;;1.73;1.30;;;27.00;46.60;;;;;;5038779;28;20025;-64
2023/06/20 11:50:43;;;;;;;2.03;1.48;;;27.00;46.60;;;;;;5039351;28;20032;-65
2023/06/20 11:53:20;;;;;;;3.17;1.50;;;27.00;46.60;;;;;;5037838;28;20120;-65
2023/06/20 11:55:51;;;;;;;1.92;1.50;;;27.10;46.60;;;;;;5038699;28;20113;-64
2023/06/20 11:58:17;;;;;;;1.80;1.50;;;27.00;46.60;;;;;;5040862;28;20025;-64
2023/06/20 12:00:48;;;;;;;2.03;1.52;;;27.10;46.60;;;;;;5035492;28;20025;-64
2023/06/20 12:03:18;;;;;;;1.85;1.40;;;27.10;46.60;;;;;;5038268;28;20112;-65
2023/06/20 12:05:44;;;;;;;1.70;1.40;;;27.10;46.60;;;;;;5037275;28;20041;-66
2023/06/20 12:08:10;;;;;;;2.00;1.52;;;27.10;46.70;;;;;;5037094;28;20082;-65
2023/06/20 12:10:45;;;;;;;1.92;1.45;;;27.10;46.60;;;;;;5039922;28;20029;-65
2023/06/20 12:13:11;;;;;;;1.77;1.30;;;27.10;46.60;;;;;;5037689;28;20040;-64
2023/06/20 12:15:37;;;;;;;2.53;1.40;;;27.10;46.60;;;;;;5038792;28;20423;-64
2023/06/20 12:18:02;;;;;;;1.65;1.35;;;27.10;46.60;;;;;;5036418;28;20025;-65
2023/06/20 12:20:28;;;;;;;1.73;1.40;;;27.10;46.60;;;;;;5040099;28;20021;-65
2023/06/20 12:22:54;;;;;;;1.60;1.30;;;27.10;46.60;;;;;;5039448;28;20021;-65
2023/06/20 12:25:19;;;;;;;2.47;1.50;;;27.10;46.60;;;;;;5037083;28;20029;-65
2023/06/20 12:27:45;;;;;;;1.98;1.45;;;27.10;46.60;;;;;;5040677;28;20064;-64
2023/06/20 12:30:10;;;;;;;2.08;1.30;;;27.10;46.60;;;;;;5038629;28;20516;-64
2023/06/20 12:32:36;;;;;;;2.00;1.40;;;27.10;46.60;;;;;;5037159;28;20041;-64
2023/06/20 12:35:02;;;;;;;2.00;1.50;;;27.10;46.60;;;;;;5041551;28;20033;-65
2023/06/20 12:37:28;;;;;;;1.77;1.35;;;27.10;46.60;;;;;;5037105;28;20511;-65
2023/06/20 12:39:53;;;;;;;1.90;1.42;;;27.10;46.50;;;;;;5038357;28;20052;-64
2023/06/20 12:42:19;;;;;;;1.90;1.40;;;27.10;46.60;;;;;;5038618;28;20401;-64
2023/06/20 12:44:45;;;;;;;1.85;1.40;;;27.10;46.50;;;;;;5036754;28;20032;-65
2023/06/20 12:47:12;;;;;;;2.35;1.30;;;27.20;46.60;;;;;;5040881;28;20033;-65
2023/06/20 12:49:38;;;;;;;2.00;1.58;;;27.10;46.50;;;;;;5037626;28;20025;-65
2023/06/20 12:52:04;;;;;;;2.10;1.42;;;27.20;46.60;;;;;;5039128;28;20436;-65